Last 30 Days

OV-Siberia 8700'

Daily Data | America/Los_Angeles
as of 10/6/22 7:49 PM PDT
Date Daily Max Temp (°F) Time of Max Temp Daily Min Temp (°F) Time of Min Temp Wind Spd (mph) Daily Max Wind (mph) Time of Max Wind Max Wind Dir (°) Wet Bulb (°F) WetB Hrs <28F (hrs)
10/5/22 64.2 1416 49.9 0029 9.7 22.0 2247 E | 86 42.9 0.0
10/4/22 62.8 1455 47.9 0627 8.5 36.3 0026 ENE | 70 41.5 0.0
10/3/22 59.0 1532 49.2 2323 12.5 37.0 2343 E | 86 41.7 0.0
10/2/22 58.5 1448 44.4 0718 13.1 28.4 1256 SSW | 210 41.6 0.0
10/1/22 59.1 1446 40.6 0704 11.9 31.4 0013 ENE | 67 41.8 0.0
9/30/22 62.3 1510 45.5 0001 9.4 35.7 2159 E | 89 41.7 0.0
9/29/22 57.8 1559 46.4 0630 33.5 66.8 0036 WSW | 240 41.2 0.0
9/28/22 57.8 1403 46.6 2318 40.4 85.0 1515 SSW | 194 40.8 0.0
9/27/22 62.9 1414 52.0 2232 26.3 49.0 1606 S | 190 45.0 0.0
9/26/22 66.2 1519 54.6 0646 16.1 44.2 1445 W | 272 48.1 0.0
9/25/22 66.0 1605 51.6 0301 10.1 29.5 1527 SSW | 199 45.3 0.0
9/24/22 64.3 1610 48.4 0026 10.2 26.6 2327 ENE | 65 43.2 0.0
9/23/22 61.6 1411 41.4 0314 10.3 35.6 0054 ENE | 65 43.0 0.0
9/22/22 52.0 1611 33.7 0039 13.3 32.1 2212 ENE | 64 38.6 0.0
9/21/22 36.7 0154 30.7 1347 19.0 38.3 0524 SSW | 202 34.2 0.0
9/20/22 37.5 1732 33.1 0534 22.4 57.3 1649 S | 172 35.3 0.0
9/19/22 43.4 1355 31.3 0745 22.3 58.9 0406 SSW | 208 35.4 0.0
9/18/22 44.6 1705 33.0 2143 32.7 66.9 1122 SSW | 213 34.2 0.0
9/17/22 49.4 1400 36.4 2358 16.9 52.8 1448 WSW | 242 36.5 0.0
9/16/22 55.7 1225 43.9 2352 0.0 0.1 0606 SSE | 159 38.2 0.0
9/15/22 52.9 1410 39.6 0712 0.0 0.1 0155 SSE | 163 37.8 0.0
9/14/22 52.3 1438 40.6 0607 0.0 0.1 0705 SSE | 160 39.4 0.0
9/13/22 55.7 1500 42.2 2106 0.0 0.1 0513 SSE | 157 42.8 0.0
9/12/22 55.1 1007 47.7 2334 0.0 0.1 2208 SSE | 155 48.1 0.0
9/11/22 68.6 1202 52.5 1943 0.0 0.1 0122 SSE | 162 47.2 0.0
9/10/22 66.3 1438 57.4 2354 0.0 0.1 1819 SSE | 167 48.6 0.0
9/9/22 74.8 1330 34.7 0251 0.0 0.1 0603 SSE | 160 47.8 0.0
9/8/22 75.6 1329 62.9 0654 0.0 0.1 0129 SSE | 158 50.1 0.0
9/7/22 77.9 1426 65.0 2213 0.0 0.1 2119 SSE | 158 51.1 0.0
9/6/22 80.2 1714 65.0 0630 0.0 0.1 1842 SSE | 166 51.1 0.0
Max 80.2 - 65.0 - 40.4 85.0 - - 51.1 0.0
Avg - - - - 11.3 - - - 42.5 -
Min 36.7 - 30.7 - 0.0 0.1 - - 34.2 0.0